sensor_id;sensor_type;location;lat;lon;timestamp;P1;durP1;ratioP1;P2;durP2;ratioP2
13171;SDS011;6651;53.200;10.432;2023-04-28T00:02:17;6.32;;;5.63;;
13171;SDS011;6651;53.200;10.432;2023-04-28T00:04:43;7.30;;;5.00;;
13171;SDS011;6651;53.200;10.432;2023-04-28T00:07:09;8.25;;;5.40;;
13171;SDS011;6651;53.200;10.432;2023-04-28T00:09:35;6.47;;;5.18;;
13171;SDS011;6651;53.200;10.432;2023-04-28T00:12:01;6.85;;;4.75;;
13171;SDS011;6651;53.200;10.432;2023-04-28T00:14:27;6.13;;;4.85;;
13171;SDS011;6651;53.200;10.432;2023-04-28T00:16:53;5.13;;;4.30;;
13171;SDS011;6651;53.200;10.432;2023-04-28T00:19:21;5.00;;;4.40;;
13171;SDS011;6651;53.200;10.432;2023-04-28T00:21:47;5.75;;;4.60;;
13171;SDS011;6651;53.200;10.432;2023-04-28T00:24:13;7.78;;;4.80;;
13171;SDS011;6651;53.200;10.432;2023-04-28T00:26:39;6.07;;;4.38;;
13171;SDS011;6651;53.200;10.432;2023-04-28T00:29:05;6.50;;;4.70;;
13171;SDS011;6651;53.200;10.432;2023-04-28T00:31:31;5.82;;;4.40;;
13171;SDS011;6651;53.200;10.432;2023-04-28T00:33:59;7.18;;;4.80;;
13171;SDS011;6651;53.200;10.432;2023-04-28T00:36:25;6.20;;;4.40;;
13171;SDS011;6651;53.200;10.432;2023-04-28T00:38:55;5.10;;;4.35;;
13171;SDS011;6651;53.200;10.432;2023-04-28T00:41:21;5.47;;;4.70;;
13171;SDS011;6651;53.200;10.432;2023-04-28T00:43:48;4.88;;;4.28;;
13171;SDS011;6651;53.200;10.432;2023-04-28T00:46:23;4.82;;;4.00;;
13171;SDS011;6651;53.200;10.432;2023-04-28T00:48:50;5.53;;;4.45;;
13171;SDS011;6651;53.200;10.432;2023-04-28T00:51:17;7.38;;;4.65;;
13171;SDS011;6651;53.200;10.432;2023-04-28T00:53:43;4.93;;;4.13;;
13171;SDS011;6651;53.200;10.432;2023-04-28T00:56:09;5.50;;;4.50;;
13171;SDS011;6651;53.200;10.432;2023-04-28T00:58:35;6.75;;;4.68;;
13171;SDS011;6651;53.200;10.432;2023-04-28T01:01:02;4.65;;;4.05;;
13171;SDS011;6651;53.200;10.432;2023-04-28T01:03:28;5.45;;;4.40;;
13171;SDS011;6651;53.200;10.432;2023-04-28T01:05:54;6.50;;;4.15;;
13171;SDS011;6651;53.200;10.432;2023-04-28T01:08:27;5.65;;;4.47;;
13171;SDS011;6651;53.200;10.432;2023-04-28T01:10:54;5.63;;;4.55;;
13171;SDS011;6651;53.200;10.432;2023-04-28T01:13:20;5.25;;;4.55;;
13171;SDS011;6651;53.200;10.432;2023-04-28T01:15:46;5.40;;;4.22;;
13171;SDS011;6651;53.200;10.432;2023-04-28T01:18:12;5.80;;;4.50;;
13171;SDS011;6651;53.200;10.432;2023-04-28T01:20:39;6.78;;;5.30;;
13171;SDS011;6651;53.200;10.432;2023-04-28T01:23:05;5.35;;;4.53;;
13171;SDS011;6651;53.200;10.432;2023-04-28T01:25:36;4.72;;;4.07;;
13171;SDS011;6651;53.200;10.432;2023-04-28T01:28:02;5.70;;;4.28;;
13171;SDS011;6651;53.200;10.432;2023-04-28T01:30:28;6.68;;;4.70;;
13171;SDS011;6651;53.200;10.432;2023-04-28T01:32:54;6.45;;;4.60;;
13171;SDS011;6651;53.200;10.432;2023-04-28T01:35:20;5.63;;;4.72;;
13171;SDS011;6651;53.200;10.432;2023-04-28T01:37:46;6.85;;;4.30;;
13171;SDS011;6651;53.200;10.432;2023-04-28T01:40:12;5.90;;;4.60;;
13171;SDS011;6651;53.200;10.432;2023-04-28T01:42:38;6.78;;;4.88;;
13171;SDS011;6651;53.200;10.432;2023-04-28T01:45:04;5.00;;;4.30;;
13171;SDS011;6651;53.200;10.432;2023-04-28T01:47:30;4.85;;;4.15;;
13171;SDS011;6651;53.200;10.432;2023-04-28T01:49:56;6.40;;;4.60;;
13171;SDS011;6651;53.200;10.432;2023-04-28T01:52:22;4.78;;;4.13;;
13171;SDS011;6651;53.200;10.432;2023-04-28T01:54:49;6.05;;;4.55;;
13171;SDS011;6651;53.200;10.432;2023-04-28T01:57:15;5.38;;;4.70;;
13171;SDS011;6651;53.200;10.432;2023-04-28T01:59:41;7.10;;;4.68;;
13171;SDS011;6651;53.200;10.432;2023-04-28T02:02:07;6.07;;;4.57;;
13171;SDS011;6651;53.200;10.432;2023-04-28T02:04:33;5.18;;;4.63;;
13171;SDS011;6651;53.200;10.432;2023-04-28T02:06:59;5.55;;;4.20;;
13171;SDS011;6651;53.200;10.432;2023-04-28T02:09:25;4.68;;;4.05;;
13171;SDS011;6651;53.200;10.432;2023-04-28T02:11:51;5.40;;;4.68;;
13171;SDS011;6651;53.200;10.432;2023-04-28T02:14:17;6.10;;;4.57;;
13171;SDS011;6651;53.200;10.432;2023-04-28T02:16:44;5.25;;;4.55;;
13171;SDS011;6651;53.200;10.432;2023-04-28T02:19:11;5.57;;;4.63;;
13171;SDS011;6651;53.200;10.432;2023-04-28T02:21:37;5.10;;;4.57;;
13171;SDS011;6651;53.200;10.432;2023-04-28T02:24:03;5.55;;;4.50;;
13171;SDS011;6651;53.200;10.432;2023-04-28T02:26:29;5.60;;;4.18;;
13171;SDS011;6651;53.200;10.432;2023-04-28T02:28:55;6.65;;;4.55;;
13171;SDS011;6651;53.200;10.432;2023-04-28T02:31:21;5.45;;;4.43;;
13171;SDS011;6651;53.200;10.432;2023-04-28T02:33:47;5.22;;;4.50;;
13171;SDS011;6651;53.200;10.432;2023-04-28T02:36:13;5.80;;;4.60;;
13171;SDS011;6651;53.200;10.432;2023-04-28T02:38:39;6.55;;;4.40;;
13171;SDS011;6651;53.200;10.432;2023-04-28T02:41:08;5.28;;;4.43;;
13171;SDS011;6651;53.200;10.432;2023-04-28T02:43:34;4.95;;;4.45;;
13171;SDS011;6651;53.200;10.432;2023-04-28T02:46:01;6.68;;;4.80;;
13171;SDS011;6651;53.200;10.432;2023-04-28T02:48:28;6.40;;;4.80;;
13171;SDS011;6651;53.200;10.432;2023-04-28T02:50:54;5.05;;;4.40;;
13171;SDS011;6651;53.200;10.432;2023-04-28T02:53:20;5.75;;;4.78;;
13171;SDS011;6651;53.200;10.432;2023-04-28T02:55:47;5.45;;;4.60;;
13171;SDS011;6651;53.200;10.432;2023-04-28T02:58:16;5.43;;;4.60;;
13171;SDS011;6651;53.200;10.432;2023-04-28T03:00:42;5.28;;;4.28;;
13171;SDS011;6651;53.200;10.432;2023-04-28T03:03:08;5.00;;;4.50;;
13171;SDS011;6651;53.200;10.432;2023-04-28T03:05:34;6.80;;;4.50;;
13171;SDS011;6651;53.200;10.432;2023-04-28T03:08:00;4.88;;;4.30;;
13171;SDS011;6651;53.200;10.432;2023-04-28T03:10:26;5.20;;;4.28;;
13171;SDS011;6651;53.200;10.432;2023-04-28T03:12:53;4.63;;;4.13;;
13171;SDS011;6651;53.200;10.432;2023-04-28T03:15:19;5.65;;;4.75;;
13171;SDS011;6651;53.200;10.432;2023-04-28T03:17:45;5.53;;;4.22;;
13171;SDS011;6651;53.200;10.432;2023-04-28T03:20:11;6.65;;;5.18;;
13171;SDS011;6651;53.200;10.432;2023-04-28T03:22:37;6.88;;;4.47;;
13171;SDS011;6651;53.200;10.432;2023-04-28T03:25:03;5.50;;;4.63;;
13171;SDS011;6651;53.200;10.432;2023-04-28T03:27:29;6.00;;;4.63;;
13171;SDS011;6651;53.200;10.432;2023-04-28T03:29:55;5.45;;;4.60;;
13171;SDS011;6651;53.200;10.432;2023-04-28T03:32:21;6.82;;;4.30;;
13171;SDS011;6651;53.200;10.432;2023-04-28T03:34:48;5.07;;;4.13;;
13171;SDS011;6651;53.200;10.432;2023-04-28T03:37:14;5.45;;;4.38;;
13171;SDS011;6651;53.200;10.432;2023-04-28T03:39:40;5.07;;;4.32;;
13171;SDS011;6651;53.200;10.432;2023-04-28T03:42:06;5.57;;;4.18;;
13171;SDS011;6651;53.200;10.432;2023-04-28T03:44:32;6.28;;;4.80;;
13171;SDS011;6651;53.200;10.432;2023-04-28T03:46:58;5.50;;;4.90;;
13171;SDS011;6651;53.200;10.432;2023-04-28T03:49:25;5.63;;;4.60;;
13171;SDS011;6651;53.200;10.432;2023-04-28T03:51:51;6.05;;;4.60;;
13171;SDS011;6651;53.200;10.432;2023-04-28T03:54:17;5.60;;;5.00;;
13171;SDS011;6651;53.200;10.432;2023-04-28T03:56:43;5.28;;;4.68;;
13171;SDS011;6651;53.200;10.432;2023-04-28T03:59:09;6.13;;;4.85;;
13171;SDS011;6651;53.200;10.432;2023-04-28T04:01:36;5.22;;;4.20;;
13171;SDS011;6651;53.200;10.432;2023-04-28T04:04:03;6.10;;;4.40;;
13171;SDS011;6651;53.200;10.432;2023-04-28T04:06:29;5.72;;;4.45;;
13171;SDS011;6651;53.200;10.432;2023-04-28T04:08:55;5.38;;;4.53;;
13171;SDS011;6651;53.200;10.432;2023-04-28T04:11:21;5.65;;;4.45;;
13171;SDS011;6651;53.200;10.432;2023-04-28T04:13:47;5.28;;;4.60;;
13171;SDS011;6651;53.200;10.432;2023-04-28T04:16:13;6.50;;;4.90;;
13171;SDS011;6651;53.200;10.432;2023-04-28T04:18:40;5.45;;;4.30;;
13171;SDS011;6651;53.200;10.432;2023-04-28T04:21:06;5.72;;;4.53;;
13171;SDS011;6651;53.200;10.432;2023-04-28T04:23:32;4.95;;;4.15;;
13171;SDS011;6651;53.200;10.432;2023-04-28T04:25:58;6.05;;;4.40;;
13171;SDS011;6651;53.200;10.432;2023-04-28T04:28:24;6.15;;;4.95;;
13171;SDS011;6651;53.200;10.432;2023-04-28T04:30:50;6.10;;;4.63;;
13171;SDS011;6651;53.200;10.432;2023-04-28T04:33:16;6.45;;;4.85;;
13171;SDS011;6651;53.200;10.432;2023-04-28T04:35:42;5.75;;;4.53;;
13171;SDS011;6651;53.200;10.432;2023-04-28T04:38:08;5.28;;;4.70;;
13171;SDS011;6651;53.200;10.432;2023-04-28T04:40:35;5.45;;;4.50;;
13171;SDS011;6651;53.200;10.432;2023-04-28T04:43:01;5.63;;;4.65;;
13171;SDS011;6651;53.200;10.432;2023-04-28T04:45:27;7.30;;;5.10;;
13171;SDS011;6651;53.200;10.432;2023-04-28T04:47:53;6.18;;;4.68;;
13171;SDS011;6651;53.200;10.432;2023-04-28T04:50:19;6.55;;;5.32;;
13171;SDS011;6651;53.200;10.432;2023-04-28T04:52:45;8.93;;;5.22;;
13171;SDS011;6651;53.200;10.432;2023-04-28T04:55:11;8.50;;;5.70;;
13171;SDS011;6651;53.200;10.432;2023-04-28T04:57:37;6.47;;;5.30;;
13171;SDS011;6651;53.200;10.432;2023-04-28T05:00:03;6.47;;;5.38;;
13171;SDS011;6651;53.200;10.432;2023-04-28T05:02:30;6.88;;;5.03;;
13171;SDS011;6651;53.200;10.432;2023-04-28T05:04:56;7.07;;;4.72;;
13171;SDS011;6651;53.200;10.432;2023-04-28T05:07:22;7.32;;;4.90;;
13171;SDS011;6651;53.200;10.432;2023-04-28T05:09:48;6.25;;;4.55;;
13171;SDS011;6651;53.200;10.432;2023-04-28T05:12:14;8.55;;;4.78;;
13171;SDS011;6651;53.200;10.432;2023-04-28T05:14:40;6.60;;;4.22;;
13171;SDS011;6651;53.200;10.432;2023-04-28T05:17:06;6.63;;;4.25;;
13171;SDS011;6651;53.200;10.432;2023-04-28T05:19:32;6.88;;;5.00;;
13171;SDS011;6651;53.200;10.432;2023-04-28T05:21:58;6.18;;;4.78;;
13171;SDS011;6651;53.200;10.432;2023-04-28T05:24:25;6.93;;;4.60;;
13171;SDS011;6651;53.200;10.432;2023-04-28T05:26:51;6.80;;;4.60;;
13171;SDS011;6651;53.200;10.432;2023-04-28T05:29:18;6.00;;;4.25;;
13171;SDS011;6651;53.200;10.432;2023-04-28T05:31:44;6.68;;;4.40;;
13171;SDS011;6651;53.200;10.432;2023-04-28T05:34:10;5.05;;;3.95;;
13171;SDS011;6651;53.200;10.432;2023-04-28T05:36:36;5.18;;;4.10;;
13171;SDS011;6651;53.200;10.432;2023-04-28T05:39:02;6.38;;;4.25;;
13171;SDS011;6651;53.200;10.432;2023-04-28T05:41:28;5.60;;;4.05;;
13171;SDS011;6651;53.200;10.432;2023-04-28T05:43:54;5.00;;;3.67;;
13171;SDS011;6651;53.200;10.432;2023-04-28T05:46:21;8.98;;;4.25;;
13171;SDS011;6651;53.200;10.432;2023-04-28T05:48:47;7.53;;;4.22;;
13171;SDS011;6651;53.200;10.432;2023-04-28T05:51:13;6.30;;;3.53;;
13171;SDS011;6651;53.200;10.432;2023-04-28T05:53:39;6.72;;;3.65;;
13171;SDS011;6651;53.200;10.432;2023-04-28T05:56:05;5.05;;;3.50;;
13171;SDS011;6651;53.200;10.432;2023-04-28T05:58:32;4.95;;;3.00;;
13171;SDS011;6651;53.200;10.432;2023-04-28T06:00:58;3.28;;;2.70;;
13171;SDS011;6651;53.200;10.432;2023-04-28T06:03:24;4.78;;;2.97;;
13171;SDS011;6651;53.200;10.432;2023-04-28T06:05:50;5.70;;;3.40;;
13171;SDS011;6651;53.200;10.432;2023-04-28T06:08:17;5.93;;;2.90;;
13171;SDS011;6651;53.200;10.432;2023-04-28T06:10:43;5.70;;;3.50;;
13171;SDS011;6651;53.200;10.432;2023-04-28T06:13:10;4.72;;;3.10;;
13171;SDS011;6651;53.200;10.432;2023-04-28T06:15:36;5.75;;;3.40;;
13171;SDS011;6651;53.200;10.432;2023-04-28T06:18:02;4.72;;;2.85;;
13171;SDS011;6651;53.200;10.432;2023-04-28T06:20:30;5.45;;;2.95;;
13171;SDS011;6651;53.200;10.432;2023-04-28T06:22:56;5.32;;;3.10;;
13171;SDS011;6651;53.200;10.432;2023-04-28T06:25:22;5.35;;;3.10;;
13171;SDS011;6651;53.200;10.432;2023-04-28T06:27:48;4.57;;;3.10;;
13171;SDS011;6651;53.200;10.432;2023-04-28T06:30:18;5.63;;;3.17;;
13171;SDS011;6651;53.200;10.432;2023-04-28T06:32:44;3.47;;;2.95;;
13171;SDS011;6651;53.200;10.432;2023-04-28T06:35:10;4.35;;;3.00;;
13171;SDS011;6651;53.200;10.432;2023-04-28T06:37:36;6.47;;;3.70;;
13171;SDS011;6651;53.200;10.432;2023-04-28T06:40:02;5.00;;;3.00;;
13171;SDS011;6651;53.200;10.432;2023-04-28T06:42:29;5.53;;;3.22;;
13171;SDS011;6651;53.200;10.432;2023-04-28T06:44:55;6.10;;;3.47;;
13171;SDS011;6651;53.200;10.432;2023-04-28T06:47:21;5.28;;;3.28;;
13171;SDS011;6651;53.200;10.432;2023-04-28T06:49:47;5.65;;;3.40;;
13171;SDS011;6651;53.200;10.432;2023-04-28T06:52:14;5.97;;;3.72;;
13171;SDS011;6651;53.200;10.432;2023-04-28T06:54:40;4.88;;;3.13;;
13171;SDS011;6651;53.200;10.432;2023-04-28T06:57:06;4.95;;;3.45;;
13171;SDS011;6651;53.200;10.432;2023-04-28T06:59:33;4.28;;;3.40;;
13171;SDS011;6651;53.200;10.432;2023-04-28T07:01:59;7.43;;;3.53;;
13171;SDS011;6651;53.200;10.432;2023-04-28T07:04:25;6.15;;;3.38;;
13171;SDS011;6651;53.200;10.432;2023-04-28T07:06:51;5.15;;;3.70;;
13171;SDS011;6651;53.200;10.432;2023-04-28T07:09:17;6.38;;;3.60;;
13171;SDS011;6651;53.200;10.432;2023-04-28T07:11:44;6.32;;;3.90;;
13171;SDS011;6651;53.200;10.432;2023-04-28T07:14:10;6.43;;;3.45;;
13171;SDS011;6651;53.200;10.432;2023-04-28T07:16:36;5.68;;;3.70;;
13171;SDS011;6651;53.200;10.432;2023-04-28T07:19:02;6.35;;;3.50;;
13171;SDS011;6651;53.200;10.432;2023-04-28T07:21:28;7.97;;;3.47;;
13171;SDS011;6651;53.200;10.432;2023-04-28T07:23:54;5.47;;;3.55;;
13171;SDS011;6651;53.200;10.432;2023-04-28T07:26:23;5.82;;;3.25;;
13171;SDS011;6651;53.200;10.432;2023-04-28T07:28:49;5.55;;;3.75;;
13171;SDS011;6651;53.200;10.432;2023-04-28T07:31:15;4.97;;;3.58;;
13171;SDS011;6651;53.200;10.432;2023-04-28T07:33:42;5.63;;;3.70;;
13171;SDS011;6651;53.200;10.432;2023-04-28T07:36:08;5.55;;;3.65;;
13171;SDS011;6651;53.200;10.432;2023-04-28T07:38:34;5.80;;;3.50;;
13171;SDS011;6651;53.200;10.432;2023-04-28T07:41:01;5.07;;;3.22;;
13171;SDS011;6651;53.200;10.432;2023-04-28T07:43:27;8.60;;;3.88;;
13171;SDS011;6651;53.200;10.432;2023-04-28T07:45:53;4.07;;;3.30;;
13171;SDS011;6651;53.200;10.432;2023-04-28T07:48:19;6.80;;;3.80;;
13171;SDS011;6651;53.200;10.432;2023-04-28T07:50:45;7.82;;;3.58;;
13171;SDS011;6651;53.200;10.432;2023-04-28T07:53:12;6.18;;;3.53;;
13171;SDS011;6651;53.200;10.432;2023-04-28T07:55:38;6.28;;;3.70;;
13171;SDS011;6651;53.200;10.432;2023-04-28T07:58:08;5.80;;;3.50;;
13171;SDS011;6651;53.200;10.432;2023-04-28T08:00:35;6.80;;;3.80;;
13171;SDS011;6651;53.200;10.432;2023-04-28T08:03:01;6.40;;;3.85;;
13171;SDS011;6651;53.200;10.432;2023-04-28T08:05:27;6.72;;;3.88;;
13171;SDS011;6651;53.200;10.432;2023-04-28T08:07:53;5.00;;;3.53;;
13171;SDS011;6651;53.200;10.432;2023-04-28T08:10:19;5.40;;;3.70;;
13171;SDS011;6651;53.200;10.432;2023-04-28T08:12:45;6.72;;;3.10;;
13171;SDS011;6651;53.200;10.432;2023-04-28T08:15:11;7.80;;;3.72;;
13171;SDS011;6651;53.200;10.432;2023-04-28T08:17:37;8.30;;;3.60;;
13171;SDS011;6651;53.200;10.432;2023-04-28T08:20:03;6.13;;;3.55;;
13171;SDS011;6651;53.200;10.432;2023-04-28T08:22:30;5.13;;;3.60;;
13171;SDS011;6651;53.200;10.432;2023-04-28T08:24:56;9.60;;;3.85;;
13171;SDS011;6651;53.200;10.432;2023-04-28T08:27:22;6.30;;;3.80;;
13171;SDS011;6651;53.200;10.432;2023-04-28T08:29:49;6.15;;;3.90;;
13171;SDS011;6651;53.200;10.432;2023-04-28T08:32:16;7.18;;;3.80;;
13171;SDS011;6651;53.200;10.432;2023-04-28T08:34:42;5.68;;;3.67;;
13171;SDS011;6651;53.200;10.432;2023-04-28T08:37:08;4.88;;;3.78;;
13171;SDS011;6651;53.200;10.432;2023-04-28T08:39:34;6.78;;;3.67;;
13171;SDS011;6651;53.200;10.432;2023-04-28T08:42:03;5.28;;;3.85;;
13171;SDS011;6651;53.200;10.432;2023-04-28T08:44:38;6.95;;;3.92;;
13171;SDS011;6651;53.200;10.432;2023-04-28T08:47:11;6.32;;;3.63;;
13171;SDS011;6651;53.200;10.432;2023-04-28T08:49:38;5.47;;;3.88;;
13171;SDS011;6651;53.200;10.432;2023-04-28T08:52:15;4.63;;;3.70;;
13171;SDS011;6651;53.200;10.432;2023-04-28T08:54:41;6.63;;;4.38;;
13171;SDS011;6651;53.200;10.432;2023-04-28T08:57:09;7.25;;;4.30;;
13171;SDS011;6651;53.200;10.432;2023-04-28T08:59:41;8.13;;;4.00;;
13171;SDS011;6651;53.200;10.432;2023-04-28T09:02:07;8.25;;;4.45;;
13171;SDS011;6651;53.200;10.432;2023-04-28T09:04:33;6.10;;;3.80;;
13171;SDS011;6651;53.200;10.432;2023-04-28T09:06:59;6.93;;;4.28;;
13171;SDS011;6651;53.200;10.432;2023-04-28T09:09:26;5.78;;;3.95;;
13171;SDS011;6651;53.200;10.432;2023-04-28T09:11:56;7.50;;;4.32;;
13171;SDS011;6651;53.200;10.432;2023-04-28T09:14:23;7.32;;;3.97;;
13171;SDS011;6651;53.200;10.432;2023-04-28T09:16:49;6.45;;;4.30;;
13171;SDS011;6651;53.200;10.432;2023-04-28T09:19:16;6.35;;;4.60;;
13171;SDS011;6651;53.200;10.432;2023-04-28T09:21:55;7.53;;;4.28;;
13171;SDS011;6651;53.200;10.432;2023-04-28T09:24:25;7.00;;;4.50;;
13171;SDS011;6651;53.200;10.432;2023-04-28T09:26:51;6.47;;;4.60;;
13171;SDS011;6651;53.200;10.432;2023-04-28T09:29:17;6.05;;;4.28;;
13171;SDS011;6651;53.200;10.432;2023-04-28T09:31:43;6.30;;;4.78;;
13171;SDS011;6651;53.200;10.432;2023-04-28T09:34:09;6.72;;;4.85;;
13171;SDS011;6651;53.200;10.432;2023-04-28T09:36:36;7.90;;;4.60;;
13171;SDS011;6651;53.200;10.432;2023-04-28T09:39:02;9.20;;;4.85;;
13171;SDS011;6651;53.200;10.432;2023-04-28T09:41:38;8.60;;;5.00;;
13171;SDS011;6651;53.200;10.432;2023-04-28T09:44:09;7.30;;;4.80;;
13171;SDS011;6651;53.200;10.432;2023-04-28T09:46:35;6.88;;;4.97;;
13171;SDS011;6651;53.200;10.432;2023-04-28T09:49:01;5.32;;;4.57;;
13171;SDS011;6651;53.200;10.432;2023-04-28T09:51:27;6.85;;;4.70;;
13171;SDS011;6651;53.200;10.432;2023-04-28T09:53:53;7.75;;;4.85;;
13171;SDS011;6651;53.200;10.432;2023-04-28T09:56:21;7.18;;;4.90;;
13171;SDS011;6651;53.200;10.432;2023-04-28T09:58:49;7.00;;;4.65;;
13171;SDS011;6651;53.200;10.432;2023-04-28T10:01:16;8.20;;;4.75;;
13171;SDS011;6651;53.200;10.432;2023-04-28T10:03:42;8.95;;;4.70;;
13171;SDS011;6651;53.200;10.432;2023-04-28T10:06:08;8.85;;;5.20;;
13171;SDS011;6651;53.200;10.432;2023-04-28T10:08:35;8.57;;;4.97;;
13171;SDS011;6651;53.200;10.432;2023-04-28T10:11:01;8.63;;;5.13;;
13171;SDS011;6651;53.200;10.432;2023-04-28T10:13:27;9.48;;;5.40;;
13171;SDS011;6651;53.200;10.432;2023-04-28T10:15:54;7.95;;;5.40;;
13171;SDS011;6651;53.200;10.432;2023-04-28T10:18:22;7.30;;;5.03;;
13171;SDS011;6651;53.200;10.432;2023-04-28T10:20:52;6.65;;;5.20;;
13171;SDS011;6651;53.200;10.432;2023-04-28T10:23:33;9.63;;;5.50;;
13171;SDS011;6651;53.200;10.432;2023-04-28T10:26:01;7.13;;;5.70;;
13171;SDS011;6651;53.200;10.432;2023-04-28T10:28:27;8.32;;;5.32;;
13171;SDS011;6651;53.200;10.432;2023-04-28T10:31:13;7.85;;;5.55;;
13171;SDS011;6651;53.200;10.432;2023-04-28T10:33:40;7.20;;;5.40;;
13171;SDS011;6651;53.200;10.432;2023-04-28T10:36:06;7.63;;;5.00;;
13171;SDS011;6651;53.200;10.432;2023-04-28T10:38:33;9.68;;;5.85;;
13171;SDS011;6651;53.200;10.432;2023-04-28T10:40:59;11.48;;;5.85;;
13171;SDS011;6651;53.200;10.432;2023-04-28T10:53:59;8.02;;;5.50;;
13171;SDS011;6651;53.200;10.432;2023-04-28T10:56:20;9.75;;;5.53;;
13171;SDS011;6651;53.200;10.432;2023-04-28T10:58:47;10.20;;;6.00;;
13171;SDS011;6651;53.200;10.432;2023-04-28T11:06:22;9.70;;;5.70;;
13171;SDS011;6651;53.200;10.432;2023-04-28T11:08:57;7.60;;;5.43;;
13171;SDS011;6651;53.200;10.432;2023-04-28T11:11:25;10.43;;;6.00;;
13171;SDS011;6651;53.200;10.432;2023-04-28T11:19:26;9.13;;;5.70;;
13171;SDS011;6651;53.200;10.432;2023-04-28T11:21:54;11.88;;;6.43;;
13171;SDS011;6651;53.200;10.432;2023-04-28T11:24:20;9.85;;;6.43;;
13171;SDS011;6651;53.200;10.432;2023-04-28T11:26:47;8.13;;;6.13;;
13171;SDS011;6651;53.200;10.432;2023-04-28T11:29:13;7.82;;;5.80;;
13171;SDS011;6651;53.200;10.432;2023-04-28T11:31:39;8.40;;;6.05;;
13171;SDS011;6651;53.200;10.432;2023-04-28T11:34:10;10.25;;;5.70;;
13171;SDS011;6651;53.200;10.432;2023-04-28T11:36:38;8.85;;;6.53;;
13171;SDS011;6651;53.200;10.432;2023-04-28T11:39:08;8.43;;;6.38;;
13171;SDS011;6651;53.200;10.432;2023-04-28T11:41:42;9.57;;;5.78;;
13171;SDS011;6651;53.200;10.432;2023-04-28T11:44:09;9.10;;;5.78;;
13171;SDS011;6651;53.200;10.432;2023-04-28T11:46:35;8.38;;;5.82;;
13171;SDS011;6651;53.200;10.432;2023-04-28T11:49:09;8.88;;;6.20;;
13171;SDS011;6651;53.200;10.432;2023-04-28T11:51:36;8.75;;;5.72;;
13171;SDS011;6651;53.200;10.432;2023-04-28T11:54:03;8.93;;;6.22;;
13171;SDS011;6651;53.200;10.432;2023-04-28T11:56:30;8.88;;;6.43;;
13171;SDS011;6651;53.200;10.432;2023-04-28T11:59:05;8.13;;;6.05;;
13171;SDS011;6651;53.200;10.432;2023-04-28T12:01:32;9.07;;;5.97;;
13171;SDS011;6651;53.200;10.432;2023-04-28T12:03:58;10.15;;;6.28;;
13171;SDS011;6651;53.200;10.432;2023-04-28T12:06:25;9.45;;;6.10;;
13171;SDS011;6651;53.200;10.432;2023-04-28T12:08:52;8.88;;;5.95;;
13171;SDS011;6651;53.200;10.432;2023-04-28T12:11:18;9.00;;;5.95;;
13171;SDS011;6651;53.200;10.432;2023-04-28T12:14:01;9.63;;;6.10;;
13171;SDS011;6651;53.200;10.432;2023-04-28T12:16:38;8.38;;;6.63;;
13171;SDS011;6651;53.200;10.432;2023-04-28T12:19:07;7.88;;;6.05;;
13171;SDS011;6651;53.200;10.432;2023-04-28T12:21:35;8.48;;;6.15;;
13171;SDS011;6651;53.200;10.432;2023-04-28T12:24:12;9.55;;;6.13;;
13171;SDS011;6651;53.200;10.432;2023-04-28T12:26:38;10.90;;;6.30;;
13171;SDS011;6651;53.200;10.432;2023-04-28T12:29:04;8.10;;;6.35;;
13171;SDS011;6651;53.200;10.432;2023-04-28T12:31:30;10.02;;;7.00;;
13171;SDS011;6651;53.200;10.432;2023-04-28T12:33:56;8.50;;;6.50;;
13171;SDS011;6651;53.200;10.432;2023-04-28T12:36:22;9.65;;;6.25;;
13171;SDS011;6651;53.200;10.432;2023-04-28T12:38:48;10.60;;;7.10;;
13171;SDS011;6651;53.200;10.432;2023-04-28T12:41:15;8.93;;;6.35;;
13171;SDS011;6651;53.200;10.432;2023-04-28T12:43:41;11.07;;;6.40;;
13171;SDS011;6651;53.200;10.432;2023-04-28T12:46:08;9.55;;;6.35;;
13171;SDS011;6651;53.200;10.432;2023-04-28T12:48:38;10.70;;;6.60;;
13171;SDS011;6651;53.200;10.432;2023-04-28T12:51:04;7.95;;;6.30;;
13171;SDS011;6651;53.200;10.432;2023-04-28T12:53:30;7.68;;;6.10;;
13171;SDS011;6651;53.200;10.432;2023-04-28T12:55:56;9.27;;;6.57;;
13171;SDS011;6651;53.200;10.432;2023-04-28T12:58:23;10.93;;;6.95;;
13171;SDS011;6651;53.200;10.432;2023-04-28T13:00:49;8.98;;;6.30;;
13171;SDS011;6651;53.200;10.432;2023-04-28T13:03:15;11.60;;;6.40;;
13171;SDS011;6651;53.200;10.432;2023-04-28T13:05:41;9.13;;;6.90;;
13171;SDS011;6651;53.200;10.432;2023-04-28T13:08:08;8.32;;;7.00;;
13171;SDS011;6651;53.200;10.432;2023-04-28T13:10:34;8.65;;;6.38;;
13171;SDS011;6651;53.200;10.432;2023-04-28T13:13:00;9.32;;;6.85;;
13171;SDS011;6651;53.200;10.432;2023-04-28T13:15:26;11.95;;;6.32;;
13171;SDS011;6651;53.200;10.432;2023-04-28T13:17:52;7.88;;;6.78;;
13171;SDS011;6651;53.200;10.432;2023-04-28T13:20:18;10.75;;;6.55;;
13171;SDS011;6651;53.200;10.432;2023-04-28T13:22:44;10.40;;;6.88;;
13171;SDS011;6651;53.200;10.432;2023-04-28T13:25:10;8.98;;;6.55;;
13171;SDS011;6651;53.200;10.432;2023-04-28T13:27:36;10.52;;;6.65;;
13171;SDS011;6651;53.200;10.432;2023-04-28T13:30:02;9.30;;;6.32;;
13171;SDS011;6651;53.200;10.432;2023-04-28T13:32:29;9.73;;;6.80;;
13171;SDS011;6651;53.200;10.432;2023-04-28T13:34:55;9.77;;;6.55;;
13171;SDS011;6651;53.200;10.432;2023-04-28T13:37:21;8.85;;;6.82;;
13171;SDS011;6651;53.200;10.432;2023-04-28T13:39:47;11.02;;;7.65;;
13171;SDS011;6651;53.200;10.432;2023-04-28T13:42:13;9.18;;;6.50;;
13171;SDS011;6651;53.200;10.432;2023-04-28T13:44:40;9.30;;;6.80;;
13171;SDS011;6651;53.200;10.432;2023-04-28T13:47:06;7.90;;;6.90;;
13171;SDS011;6651;53.200;10.432;2023-04-28T13:49:33;9.85;;;6.93;;
13171;SDS011;6651;53.200;10.432;2023-04-28T13:52:01;10.60;;;6.88;;
13171;SDS011;6651;53.200;10.432;2023-04-28T13:54:27;8.70;;;6.50;;
13171;SDS011;6651;53.200;10.432;2023-04-28T13:56:54;10.13;;;6.40;;
13171;SDS011;6651;53.200;10.432;2023-04-28T13:59:21;10.05;;;6.65;;
13171;SDS011;6651;53.200;10.432;2023-04-28T14:01:47;9.60;;;6.28;;
13171;SDS011;6651;53.200;10.432;2023-04-28T14:04:13;12.38;;;6.20;;
13171;SDS011;6651;53.200;10.432;2023-04-28T14:06:39;9.95;;;6.82;;
13171;SDS011;6651;53.200;10.432;2023-04-28T14:09:06;11.27;;;7.07;;
13171;SDS011;6651;53.200;10.432;2023-04-28T14:11:32;10.25;;;6.43;;
13171;SDS011;6651;53.200;10.432;2023-04-28T14:13:58;10.85;;;6.55;;
13171;SDS011;6651;53.200;10.432;2023-04-28T14:16:25;7.50;;;6.20;;
13171;SDS011;6651;53.200;10.432;2023-04-28T14:18:51;9.85;;;6.88;;
13171;SDS011;6651;53.200;10.432;2023-04-28T14:21:17;10.85;;;6.55;;
13171;SDS011;6651;53.200;10.432;2023-04-28T14:23:43;11.23;;;6.72;;
13171;SDS011;6651;53.200;10.432;2023-04-28T14:26:09;10.25;;;6.47;;
13171;SDS011;6651;53.200;10.432;2023-04-28T14:28:35;9.68;;;6.70;;
13171;SDS011;6651;53.200;10.432;2023-04-28T14:31:02;11.07;;;6.10;;
13171;SDS011;6651;53.200;10.432;2023-04-28T14:33:30;9.77;;;6.40;;
13171;SDS011;6651;53.200;10.432;2023-04-28T14:35:56;11.20;;;6.65;;
13171;SDS011;6651;53.200;10.432;2023-04-28T14:38:22;11.10;;;6.53;;
13171;SDS011;6651;53.200;10.432;2023-04-28T14:40:48;9.25;;;6.63;;
13171;SDS011;6651;53.200;10.432;2023-04-28T14:43:14;10.82;;;6.65;;
13171;SDS011;6651;53.200;10.432;2023-04-28T14:45:40;8.15;;;6.00;;
13171;SDS011;6651;53.200;10.432;2023-04-28T14:48:06;10.18;;;6.60;;
13171;SDS011;6651;53.200;10.432;2023-04-28T14:50:34;9.40;;;6.20;;
13171;SDS011;6651;53.200;10.432;2023-04-28T14:53:00;11.25;;;6.28;;
13171;SDS011;6651;53.200;10.432;2023-04-28T14:55:30;9.75;;;6.30;;
13171;SDS011;6651;53.200;10.432;2023-04-28T14:57:57;9.10;;;6.00;;
13171;SDS011;6651;53.200;10.432;2023-04-28T15:00:23;9.20;;;6.15;;
13171;SDS011;6651;53.200;10.432;2023-04-28T15:02:49;11.05;;;6.72;;
13171;SDS011;6651;53.200;10.432;2023-04-28T15:05:15;7.53;;;5.80;;